Time;durP1;ratioP1;P1;durP2;ratioP2;P2;SDS_P1;SDS_P2;PMS_P1;PMS_P2;Temp;Humidity;BMP_temperature;BMP_pressure;BME280_temperature;BME280_humidity;BME280_pressure;Samples;Min_cycle;Max_cycle;Signal;HPM_P1;HPM_P2
2023/05/02 00:02:14;;;;;;;4.07;3.77;;;;;;;;;;5028026;28;20200;-30
2023/05/02 00:04:42;;;;;;;3.37;3.17;;;;;;;;;;5042680;28;20226;-33
2023/05/02 00:07:09;;;;;;;3.37;3.07;;;;;;;;;;5040088;28;20217;-31
2023/05/02 00:09:36;;;;;;;3.47;3.17;;;;;;;;;;5032224;28;20748;-32
2023/05/02 00:12:05;;;;;;;3.57;3.23;;;;;;;;;;5044867;28;20242;-33
2023/05/02 00:14:32;;;;;;;4.37;3.00;;;;;;;;;;5033488;28;20588;-32
2023/05/02 00:16:59;;;;;;;2.97;2.77;;;;;;;;;;5037659;28;20574;-34
2023/05/02 00:19:27;;;;;;;3.33;3.03;;;;;;;;;;5038260;28;20264;-32
2023/05/02 00:21:54;;;;;;;3.77;2.67;;;;;;;;;;5041662;28;20213;-30
2023/05/02 00:24:21;;;;;;;3.70;3.40;;;;;;;;;;5049341;28;20350;-31
2023/05/02 00:26:48;;;;;;;3.67;3.33;;;;;;;;;;5046841;28;20203;-32
2023/05/02 00:29:17;;;;;;;3.60;3.30;;;;;;;;;;5037724;28;20272;-32
2023/05/02 00:31:44;;;;;;;3.77;3.47;;;;;;;;;;5043606;28;20201;-35
2023/05/02 00:34:11;;;;;;;2.83;2.63;;;;;;;;;;5039200;28;20685;-31
2023/05/02 00:36:38;;;;;;;5.57;3.17;;;;;;;;;;5043380;28;20211;-37
2023/05/02 00:39:05;;;;;;;4.83;3.00;;;;;;;;;;5053799;28;20213;-34
2023/05/02 00:41:32;;;;;;;3.57;3.27;;;;;;;;;;5051862;28;20210;-33
2023/05/02 00:43:59;;;;;;;3.07;2.80;;;;;;;;;;5038727;28;20689;-33
2023/05/02 00:46:28;;;;;;;3.00;2.80;;;;;;;;;;5041597;28;20197;-31
2023/05/02 00:48:55;;;;;;;4.33;3.53;;;;;;;;;;5040749;28;20255;-36
2023/05/02 00:51:22;;;;;;;3.17;2.83;;;;;;;;;;5049607;28;20703;-35
2023/05/02 00:53:50;;;;;;;3.57;3.27;;;;;;;;;;5053602;28;20238;-35
2023/05/02 00:56:17;;;;;;;4.33;3.00;;;;;;;;;;5048782;28;20224;-33
2023/05/02 00:58:44;;;;;;;3.30;3.00;;;;;;;;;;5037953;28;20198;-32
2023/05/02 01:01:26;;;;;;;2.97;2.63;;;;;;;;;;5032691;28;20208;-33
2023/05/02 01:04:02;;;;;;;3.40;2.90;;;;;;;;;;5048265;28;20238;-38
2023/05/02 01:06:35;;;;;;;3.70;3.40;;;;;;;;;;5034843;28;20285;-33
2023/05/02 01:09:10;;;;;;;3.37;3.00;;;;;;;;;;5032348;28;20307;-32
2023/05/02 01:11:49;;;;;;;2.80;2.60;;;;;;;;;;5034204;28;20406;-36
2023/05/02 01:14:16;;;;;;;2.77;2.57;;;;;;;;;;5037827;28;20608;-31
2023/05/02 01:16:44;;;;;;;2.83;2.63;;;;;;;;;;5033313;28;20196;-33
2023/05/02 01:19:26;;;;;;;2.80;2.60;;;;;;;;;;5042418;28;20305;-33
2023/05/02 01:21:53;;;;;;;4.17;2.77;;;;;;;;;;5032722;28;20242;-35
2023/05/02 01:24:26;;;;;;;2.60;2.40;;;;;;;;;;5033178;28;20234;-36
2023/05/02 01:27:01;;;;;;;3.40;3.10;;;;;;;;;;5037682;28;20203;-34
2023/05/02 01:29:30;;;;;;;3.00;2.80;;;;;;;;;;5033699;28;20226;-32
2023/05/02 01:31:57;;;;;;;3.67;3.00;;;;;;;;;;5052219;28;20211;-36
2023/05/02 01:34:26;;;;;;;2.93;2.73;;;;;;;;;;5042910;28;20318;-33
2023/05/02 01:36:54;;;;;;;3.53;2.67;;;;;;;;;;5049272;28;20210;-35
2023/05/02 01:39:23;;;;;;;2.93;2.73;;;;;;;;;;5032892;28;20298;-35
2023/05/02 01:41:51;;;;;;;3.73;3.30;;;;;;;;;;5044561;28;20207;-34
2023/05/02 01:44:20;;;;;;;2.83;2.57;;;;;;;;;;5052591;28;20249;-34
2023/05/02 01:46:49;;;;;;;2.53;2.33;;;;;;;;;;5051841;28;20202;-35
2023/05/02 01:49:16;;;;;;;5.37;2.90;;;;;;;;;;5043517;28;20597;-34
2023/05/02 01:51:45;;;;;;;2.87;2.57;;;;;;;;;;5049435;28;20199;-32
2023/05/02 01:54:13;;;;;;;2.50;2.30;;;;;;;;;;5032944;28;20263;-33
2023/05/02 01:56:40;;;;;;;2.57;2.37;;;;;;;;;;5031993;28;20220;-36
2023/05/02 01:59:10;;;;;;;2.60;2.40;;;;;;;;;;5036365;28;20207;-32
2023/05/02 02:01:38;;;;;;;2.63;2.43;;;;;;;;;;5032013;28;20321;-33
2023/05/02 02:04:07;;;;;;;2.90;2.70;;;;;;;;;;5045433;28;20226;-34
2023/05/02 02:06:34;;;;;;;2.70;2.50;;;;;;;;;;5040969;28;20203;-34
2023/05/02 02:09:02;;;;;;;2.93;2.60;;;;;;;;;;5032545;28;20570;-34
2023/05/02 02:11:33;;;;;;;2.97;2.77;;;;;;;;;;5031695;28;20582;-33
2023/05/02 02:14:02;;;;;;;4.47;2.67;;;;;;;;;;5047564;28;20226;-35
2023/05/02 02:16:31;;;;;;;2.00;1.90;;;;;;;;;;5040622;28;20202;-33
2023/05/02 02:18:59;;;;;;;2.67;2.47;;;;;;;;;;5041341;28;20603;-32
2023/05/02 02:21:29;;;;;;;3.83;3.00;;;;;;;;;;5038816;28;20215;-32
2023/05/02 02:23:58;;;;;;;3.70;2.90;;;;;;;;;;5034442;28;20230;-34
2023/05/02 02:26:25;;;;;;;2.50;2.30;;;;;;;;;;5034549;28;20234;-36
2023/05/02 02:28:52;;;;;;;2.50;2.30;;;;;;;;;;5042829;28;20707;-35
2023/05/02 02:31:19;;;;;;;2.30;2.10;;;;;;;;;;5043311;28;20207;-33
2023/05/02 02:33:46;;;;;;;2.50;2.30;;;;;;;;;;5046526;28;20318;-36
2023/05/02 02:36:16;;;;;;;2.70;2.27;;;;;;;;;;5037661;28;20214;-37
2023/05/02 02:38:48;;;;;;;5.47;2.60;;;;;;;;;;5033590;28;20207;-34
2023/05/02 02:41:19;;;;;;;4.07;2.40;;;;;;;;;;5048767;28;20199;-33
2023/05/02 02:43:52;;;;;;;2.37;2.27;;;;;;;;;;5038216;28;20229;-37
2023/05/02 02:46:25;;;;;;;2.60;2.40;;;;;;;;;;5043899;28;20198;-34
2023/05/02 02:48:58;;;;;;;3.30;2.53;;;;;;;;;;5043753;28;20209;-34
2023/05/02 02:51:29;;;;;;;2.80;2.43;;;;;;;;;;5041689;28;20217;-37
2023/05/02 02:54:01;;;;;;;3.80;2.57;;;;;;;;;;5039675;28;20249;-33
2023/05/02 02:56:30;;;;;;;4.97;2.80;;;;;;;;;;5049866;28;20209;-31
2023/05/02 02:58:59;;;;;;;2.60;2.40;;;;;;;;;;5039961;28;20208;-32
2023/05/02 03:01:28;;;;;;;5.07;2.90;;;;;;;;;;5032144;28;20205;-35
2023/05/02 03:03:55;;;;;;;7.93;3.17;;;;;;;;;;5037577;28;20649;-34
2023/05/02 03:06:22;;;;;;;8.57;2.63;;;;;;;;;;5050044;28;20208;-35
2023/05/02 03:08:50;;;;;;;2.83;2.63;;;;;;;;;;5031939;28;20206;-32
2023/05/02 03:11:18;;;;;;;3.90;3.00;;;;;;;;;;5040429;28;20222;-33
2023/05/02 03:13:46;;;;;;;3.73;3.07;;;;;;;;;;5032411;28;20228;-32
2023/05/02 03:16:22;;;;;;;3.70;3.20;;;;;;;;;;5045011;28;20657;-35
2023/05/02 03:18:49;;;;;;;3.00;2.80;;;;;;;;;;5037045;28;20206;-35
2023/05/02 03:21:16;;;;;;;5.17;2.90;;;;;;;;;;5049871;28;20214;-35
2023/05/02 03:23:43;;;;;;;3.57;2.70;;;;;;;;;;5032253;28;20319;-34
2023/05/02 03:26:10;;;;;;;3.00;2.80;;;;;;;;;;5030946;28;20286;-34
2023/05/02 03:28:39;;;;;;;2.80;2.60;;;;;;;;;;5041280;28;20217;-34
2023/05/02 03:31:06;;;;;;;5.53;3.00;;;;;;;;;;5037711;28;20215;-32
2023/05/02 03:33:33;;;;;;;3.57;3.00;;;;;;;;;;5033611;28;20228;-35
2023/05/02 03:36:00;;;;;;;2.80;2.60;;;;;;;;;;5048150;28;20686;-32
2023/05/02 03:38:29;;;;;;;4.23;2.77;;;;;;;;;;5040121;28;20210;-31
2023/05/02 03:40:57;;;;;;;3.23;2.83;;;;;;;;;;5038376;28;20275;-32
2023/05/02 03:43:25;;;;;;;3.37;2.77;;;;;;;;;;5045577;28;20218;-32
2023/05/02 03:45:53;;;;;;;4.10;3.57;;;;;;;;;;5039209;28;20206;-32
2023/05/02 03:48:20;;;;;;;4.20;2.93;;;;;;;;;;5029559;28;20584;-33
2023/05/02 03:50:47;;;;;;;4.07;3.67;;;;;;;;;;5032939;28;20233;-33
2023/05/02 03:53:15;;;;;;;4.17;3.67;;;;;;;;;;5043676;28;20237;-32
2023/05/02 03:55:42;;;;;;;4.10;3.70;;;;;;;;;;5049889;28;20202;-32
2023/05/02 03:58:11;;;;;;;4.23;3.83;;;;;;;;;;5040082;28;20212;-34
2023/05/02 04:00:38;;;;;;;4.30;3.43;;;;;;;;;;5047643;28;20206;-33
2023/05/02 04:03:07;;;;;;;4.00;3.60;;;;;;;;;;5034568;28;20204;-33
2023/05/02 04:05:34;;;;;;;5.60;4.63;;;;;;;;;;5040669;28;20297;-32
2023/05/02 04:08:02;;;;;;;6.20;4.00;;;;;;;;;;5030340;28;20207;-32
2023/05/02 04:10:29;;;;;;;6.77;4.83;;;;;;;;;;5044179;28;20687;-33
2023/05/02 04:12:56;;;;;;;4.73;4.23;;;;;;;;;;5040146;28;20209;-32
2023/05/02 04:15:23;;;;;;;4.50;4.00;;;;;;;;;;5041482;28;20205;-33
2023/05/02 04:17:52;;;;;;;4.97;4.47;;;;;;;;;;5048478;28;20544;-29
2023/05/02 04:20:20;;;;;;;4.20;3.70;;;;;;;;;;5038415;28;20568;-34
2023/05/02 04:22:49;;;;;;;4.33;3.93;;;;;;;;;;5035622;28;20195;-33
2023/05/02 04:25:16;;;;;;;5.87;4.17;;;;;;;;;;5038891;28;20213;-32
2023/05/02 04:27:43;;;;;;;4.30;3.90;;;;;;;;;;5045201;28;20204;-29
2023/05/02 04:30:11;;;;;;;4.73;4.00;;;;;;;;;;5050692;28;20230;-35
2023/05/02 04:32:38;;;;;;;3.83;3.23;;;;;;;;;;5042050;28;20744;-29
2023/05/02 04:35:05;;;;;;;4.67;3.17;;;;;;;;;;5038751;28;20227;-32
2023/05/02 04:37:34;;;;;;;3.73;3.33;;;;;;;;;;5052592;28;20194;-29
2023/05/02 04:40:02;;;;;;;3.70;3.10;;;;;;;;;;5053615;28;20257;-30
2023/05/02 04:42:29;;;;;;;4.87;3.57;;;;;;;;;;5042793;28;20234;-32
2023/05/02 04:44:56;;;;;;;4.03;3.63;;;;;;;;;;5035403;28;20231;-31
2023/05/02 04:47:23;;;;;;;3.67;3.37;;;;;;;;;;5035823;28;20338;-32
2023/05/02 04:49:50;;;;;;;4.33;3.80;;;;;;;;;;5039172;28;20206;-30
2023/05/02 04:52:18;;;;;;;4.67;3.30;;;;;;;;;;5041405;28;20210;-33
2023/05/02 04:54:47;;;;;;;4.00;3.60;;;;;;;;;;5047195;28;20734;-33
2023/05/02 04:57:15;;;;;;;5.03;4.27;;;;;;;;;;5056265;28;20263;-31
2023/05/02 04:59:42;;;;;;;3.53;3.07;;;;;;;;;;5050266;28;20233;-30
2023/05/02 05:02:11;;;;;;;4.43;3.50;;;;;;;;;;5045376;28;20246;-32
2023/05/02 05:04:38;;;;;;;3.83;3.53;;;;;;;;;;5037825;28;20231;-29
2023/05/02 05:07:05;;;;;;;4.47;3.57;;;;;;;;;;5053262;28;20212;-32
2023/05/02 05:09:32;;;;;;;5.80;3.67;;;;;;;;;;5054949;28;20206;-32
2023/05/02 05:12:02;;;;;;;3.90;3.60;;;;;;;;;;5053624;28;20230;-29
2023/05/02 05:14:30;;;;;;;4.20;3.03;;;;;;;;;;5042793;28;20240;-32
2023/05/02 05:16:58;;;;;;;3.83;3.47;;;;;;;;;;5052609;28;20292;-29
2023/05/02 05:19:25;;;;;;;4.13;3.73;;;;;;;;;;5044315;28;20213;-30
2023/05/02 05:21:52;;;;;;;3.43;3.13;;;;;;;;;;5037358;28;20203;-29
2023/05/02 05:24:20;;;;;;;3.57;3.23;;;;;;;;;;5055366;28;20230;-31
2023/05/02 05:26:47;;;;;;;4.00;3.60;;;;;;;;;;5039106;28;20221;-30
2023/05/02 05:29:17;;;;;;;3.93;3.53;;;;;;;;;;5049130;28;20206;-34
2023/05/02 05:31:44;;;;;;;4.23;3.57;;;;;;;;;;5053795;28;20249;-32
2023/05/02 05:34:11;;;;;;;3.70;3.40;;;;;;;;;;5043582;28;20705;-29
2023/05/02 05:36:40;;;;;;;4.77;4.23;;;;;;;;;;5042599;28;20207;-34
2023/05/02 05:39:07;;;;;;;3.80;3.40;;;;;;;;;;5034265;28;20633;-31
2023/05/02 05:41:34;;;;;;;4.40;4.00;;;;;;;;;;5032637;28;20209;-33
2023/05/02 05:44:02;;;;;;;4.00;3.63;;;;;;;;;;5042254;28;20237;-31
2023/05/02 05:46:30;;;;;;;4.17;3.57;;;;;;;;;;5042306;28;20301;-31
2023/05/02 05:48:57;;;;;;;4.00;3.50;;;;;;;;;;5037124;28;20210;-31
2023/05/02 05:51:26;;;;;;;6.17;3.80;;;;;;;;;;5046438;28;20237;-34
2023/05/02 05:56:22;;;;;;;4.10;3.70;;;;;;;;;;5067628;28;20221;-32
2023/05/02 05:58:49;;;;;;;5.97;3.83;;;;;;;;;;5072906;28;20294;-36
2023/05/02 06:01:17;;;;;;;10.63;9.83;;;;;;;;;;5073296;28;20202;-28
2023/05/02 06:03:46;;;;;;;8.13;7.33;;;;;;;;;;5060923;28;20261;-35
2023/05/02 06:06:14;;;;;;;7.17;6.47;;;;;;;;;;5053649;28;20253;-37
2023/05/02 06:08:42;;;;;;;8.07;7.27;;;;;;;;;;5054206;28;20293;-38
2023/05/02 06:11:14;;;;;;;8.67;7.90;;;;;;;;;;5054272;28;20214;-40
2023/05/02 06:13:41;;;;;;;7.63;6.87;;;;;;;;;;5045790;28;20240;-39
2023/05/02 06:16:10;;;;;;;7.60;6.90;;;;;;;;;;5039857;28;20210;-39
2023/05/02 06:18:37;;;;;;;6.13;5.53;;;;;;;;;;5043407;28;20211;-37
2023/05/02 06:21:06;;;;;;;7.03;6.33;;;;;;;;;;5052970;28;20281;-36
2023/05/02 06:23:38;;;;;;;7.40;5.73;;;;;;;;;;5046718;28;20250;-37
2023/05/02 06:26:08;;;;;;;9.73;7.97;;;;;;;;;;5053518;28;20307;-41
2023/05/02 06:28:40;;;;;;;6.80;6.10;;;;;;;;;;5053439;28;20294;-36
2023/05/02 06:31:13;;;;;;;5.60;5.10;;;;;;;;;;5053929;28;20226;-42
2023/05/02 06:38:50;;;;;;;5.40;4.90;;;;;;;;;;5072561;28;20224;-29
2023/05/02 06:41:20;;;;;;;7.20;4.70;;;;;;;;;;5067376;28;20213;-29
2023/05/02 06:43:49;;;;;;;5.43;4.93;;;;;;;;;;5055838;28;20254;-27
2023/05/02 06:46:17;;;;;;;6.87;5.03;;;;;;;;;;5052659;28;20207;-31
2023/05/02 06:48:45;;;;;;;5.10;4.53;;;;;;;;;;5039026;28;20214;-26
2023/05/02 06:51:12;;;;;;;6.60;4.80;;;;;;;;;;5049788;28;20240;-31
2023/05/02 06:53:39;;;;;;;9.07;5.47;;;;;;;;;;5052676;28;20223;-29
2023/05/02 06:56:08;;;;;;;6.43;5.40;;;;;;;;;;5048436;28;20206;-27
2023/05/02 06:58:35;;;;;;;5.57;4.97;;;;;;;;;;5046088;28;20210;-31
2023/05/02 07:01:02;;;;;;;5.60;5.10;;;;;;;;;;5052335;28;20237;-27
2023/05/02 07:03:33;;;;;;;5.53;5.03;;;;;;;;;;5048433;28;20218;-28
2023/05/02 07:06:01;;;;;;;5.53;5.03;;;;;;;;;;5050244;28;20296;-28
2023/05/02 07:08:29;;;;;;;6.50;5.07;;;;;;;;;;5053113;28;20604;-28
2023/05/02 07:10:59;;;;;;;8.37;5.63;;;;;;;;;;5049526;28;20218;-30
2023/05/02 07:13:29;;;;;;;5.53;4.97;;;;;;;;;;5032473;28;20234;-29
2023/05/02 07:15:58;;;;;;;5.43;4.90;;;;;;;;;;5039367;28;20207;-27
2023/05/02 07:18:25;;;;;;;5.37;4.87;;;;;;;;;;5040066;28;20202;-28
2023/05/02 07:20:52;;;;;;;6.83;5.10;;;;;;;;;;5051947;28;20202;-28
2023/05/02 07:23:19;;;;;;;5.50;4.97;;;;;;;;;;5052545;28;20218;-30
2023/05/02 07:25:52;;;;;;;6.67;5.40;;;;;;;;;;5052715;28;20216;-30
2023/05/02 07:28:19;;;;;;;6.17;5.57;;;;;;;;;;5045060;28;20202;-30
2023/05/02 07:30:48;;;;;;;6.07;5.43;;;;;;;;;;5050744;28;20227;-31
2023/05/02 07:33:27;;;;;;;6.20;5.60;;;;;;;;;;5043122;28;20259;-30
2023/05/02 07:36:03;;;;;;;6.10;5.27;;;;;;;;;;5053235;28;20211;-28
2023/05/02 07:38:33;;;;;;;10.40;5.67;;;;;;;;;;5053212;28;20257;-28
2023/05/02 07:41:18;;;;;;;6.43;5.50;;;;;;;;;;5053343;28;20290;-29
2023/05/02 07:43:47;;;;;;;6.50;5.77;;;;;;;;;;5044257;28;20238;-28
2023/05/02 07:49:10;;;;;;;6.80;6.07;;;;;;;;;;5043612;28;20219;-37
2023/05/02 07:57:57;;;;;;;7.67;6.87;;;;;;;;;;5048296;28;20285;-37
2023/05/02 08:00:55;;;;;;;8.13;6.97;;;;;;;;;;5033474;28;20203;-37
2023/05/02 08:19:03;;;;;;;10.07;7.73;;;;;;;;;;5053379;28;20218;-27
2023/05/02 08:21:45;;;;;;;12.47;7.83;;;;;;;;;;5052303;28;20198;-29
2023/05/02 08:24:15;;;;;;;8.93;8.00;;;;;;;;;;5056292;28;20328;-30
2023/05/02 08:26:46;;;;;;;9.17;8.07;;;;;;;;;;5044042;28;20199;-29
2023/05/02 08:29:22;;;;;;;8.70;7.80;;;;;;;;;;5019083;28;20730;-27
2023/05/02 08:31:53;;;;;;;9.80;8.67;;;;;;;;;;5040259;28;20228;-28
2023/05/02 08:34:27;;;;;;;9.77;7.60;;;;;;;;;;5031555;28;20271;-27
2023/05/02 08:37:18;;;;;;;10.30;8.03;;;;;;;;;;5033406;28;20293;-28
2023/05/02 08:39:50;;;;;;;10.97;7.63;;;;;;;;;;5032433;28;20629;-28
2023/05/02 08:42:24;;;;;;;8.80;7.73;;;;;;;;;;5036762;28;20312;-30
2023/05/02 08:45:09;;;;;;;9.43;8.07;;;;;;;;;;5032535;28;20226;-30
2023/05/02 08:52:48;;;;;;;10.73;8.93;;;;;;;;;;5052700;28;20240;-27
2023/05/02 08:55:20;;;;;;;10.87;9.37;;;;;;;;;;5032096;28;20313;-28
2023/05/02 08:57:49;;;;;;;10.00;8.57;;;;;;;;;;5029985;28;20211;-28
2023/05/02 09:03:22;;;;;;;14.17;9.80;;;;;;;;;;5015276;28;20261;-32
2023/05/02 09:06:02;;;;;;;14.90;9.37;;;;;;;;;;5029236;28;20219;-29
2023/05/02 09:11:20;;;;;;;14.40;9.27;;;;;;;;;;5035328;28;20221;-32
2023/05/02 09:19:03;;;;;;;12.93;10.90;;;;;;;;;;5023724;28;20236;-28
2023/05/02 09:24:07;;;;;;;13.50;10.83;;;;;;;;;;5034251;28;20284;-28
2023/05/02 09:26:47;;;;;;;14.27;11.87;;;;;;;;;;5019941;28;20237;-29
2023/05/02 09:29:20;;;;;;;17.20;11.47;;;;;;;;;;5035449;28;20279;-28
2023/05/02 09:31:50;;;;;;;15.63;11.37;;;;;;;;;;5034966;28;20255;-32
2023/05/02 09:34:19;;;;;;;11.50;10.30;;;;;;;;;;5032711;28;20224;-26
2023/05/02 09:36:52;;;;;;;14.57;11.87;;;;;;;;;;5035252;28;20240;-30
2023/05/02 09:39:27;;;;;;;14.70;9.87;;;;;;;;;;5035531;28;20301;-29
2023/05/02 09:44:41;;;;;;;14.10;10.13;;;;;;;;;;5029494;28;20233;-30
2023/05/02 09:47:31;;;;;;;14.10;10.93;;;;;;;;;;5028084;28;20215;-31
2023/05/02 09:50:05;;;;;;;12.30;10.73;;;;;;;;;;5027548;28;20197;-27
2023/05/02 09:52:34;;;;;;;12.67;11.27;;;;;;;;;;5026822;28;20234;-32
2023/05/02 09:55:01;;;;;;;16.93;12.27;;;;;;;;;;5035197;28;20261;-29
2023/05/02 09:57:42;;;;;;;20.70;11.30;;;;;;;;;;5033217;28;20273;-31
2023/05/02 10:00:18;;;;;;;14.27;11.47;;;;;;;;;;5015590;28;20258;-26
2023/05/02 10:02:48;;;;;;;17.30;10.43;;;;;;;;;;5019121;28;20254;-28
2023/05/02 10:05:18;;;;;;;13.57;11.53;;;;;;;;;;5023919;28;20207;-30
2023/05/02 10:07:46;;;;;;;13.20;10.70;;;;;;;;;;5033726;28;20214;-29
2023/05/02 10:10:15;;;;;;;12.80;11.00;;;;;;;;;;5034269;28;20221;-28
2023/05/02 10:12:42;;;;;;;15.43;10.90;;;;;;;;;;5028230;28;20231;-30
2023/05/02 10:15:14;;;;;;;12.50;11.20;;;;;;;;;;5025872;28;20310;-30
2023/05/02 10:17:44;;;;;;;12.50;11.20;;;;;;;;;;5021239;28;20235;-29
2023/05/02 10:20:15;;;;;;;11.97;10.63;;;;;;;;;;5022567;28;20215;-28
2023/05/02 10:22:44;;;;;;;12.97;10.43;;;;;;;;;;5031299;28;20205;-29
2023/05/02 10:25:19;;;;;;;13.30;10.87;;;;;;;;;;5034644;28;20282;-29
2023/05/02 10:27:47;;;;;;;10.93;9.70;;;;;;;;;;5025809;28;20305;-30
2023/05/02 10:30:16;;;;;;;11.50;10.00;;;;;;;;;;5032151;28;20218;-29
2023/05/02 10:32:47;;;;;;;10.13;9.13;;;;;;;;;;5028879;28;20242;-28
2023/05/02 10:35:19;;;;;;;11.50;9.13;;;;;;;;;;5025642;28;20231;-28
2023/05/02 10:37:55;;;;;;;9.83;8.73;;;;;;;;;;5025527;28;20218;-29
2023/05/02 10:40:28;;;;;;;11.37;9.20;;;;;;;;;;5015025;28;20190;-27
2023/05/02 10:42:58;;;;;;;11.63;9.53;;;;;;;;;;5029230;28;20218;-29
2023/05/02 10:45:41;;;;;;;11.87;10.13;;;;;;;;;;5049626;28;20293;-29
2023/05/02 10:48:18;;;;;;;9.10;7.10;;;;;;;;;;5051513;28;20198;-32
2023/05/02 10:50:50;;;;;;;9.67;8.63;;;;;;;;;;5043336;28;20216;-27
2023/05/02 10:53:23;;;;;;;10.60;9.03;;;;;;;;;;5045010;28;20272;-32
2023/05/02 10:56:05;;;;;;;9.33;8.10;;;;;;;;;;5044502;28;20216;-29
2023/05/02 10:58:33;;;;;;;14.40;10.20;;;;;;;;;;5038966;28;20210;-27
2023/05/02 11:01:15;;;;;;;9.97;8.80;;;;;;;;;;5053428;28;20216;-27
2023/05/02 11:03:56;;;;;;;10.13;9.07;;;;;;;;;;5044260;28;20228;-31
2023/05/02 11:06:23;;;;;;;11.37;9.53;;;;;;;;;;5049266;28;20229;-26
2023/05/02 11:08:51;;;;;;;10.17;9.17;;;;;;;;;;5052675;28;20218;-28
2023/05/02 11:11:39;;;;;;;10.87;8.73;;;;;;;;;;5052919;28;20238;-31
2023/05/02 11:14:06;;;;;;;10.37;9.27;;;;;;;;;;5041156;28;20313;-28
2023/05/02 11:16:54;;;;;;;11.97;10.30;;;;;;;;;;5044125;28;20213;-29
2023/05/02 11:19:23;;;;;;;11.00;9.83;;;;;;;;;;5041189;28;20206;-31
2023/05/02 11:21:52;;;;;;;11.17;9.70;;;;;;;;;;5048270;28;20212;-30
2023/05/02 11:24:38;;;;;;;10.77;9.57;;;;;;;;;;5053191;28;20261;-31
2023/05/02 11:27:21;;;;;;;11.93;8.63;;;;;;;;;;5040546;28;20213;-29
2023/05/02 11:29:54;;;;;;;14.57;9.10;;;;;;;;;;5042936;28;20209;-27
2023/05/02 11:32:21;;;;;;;13.07;9.73;;;;;;;;;;5049584;28;20394;-30
2023/05/02 11:34:51;;;;;;;14.40;10.33;;;;;;;;;;5038433;28;20230;-30
2023/05/02 11:37:19;;;;;;;12.50;9.20;;;;;;;;;;5040998;28;20211;-27
2023/05/02 11:39:46;;;;;;;12.30;9.93;;;;;;;;;;5051000;28;20213;-28
2023/05/02 11:42:28;;;;;;;13.97;9.70;;;;;;;;;;5041492;28;20241;-29
2023/05/02 11:44:56;;;;;;;9.87;8.87;;;;;;;;;;5040693;28;20234;-27
2023/05/02 11:47:23;;;;;;;11.73;9.00;;;;;;;;;;5044572;28;20209;-31
2023/05/02 11:49:52;;;;;;;11.00;8.67;;;;;;;;;;5038918;28;20254;-29
2023/05/02 11:52:19;;;;;;;11.83;9.60;;;;;;;;;;5040030;28;20226;-29
2023/05/02 11:54:46;;;;;;;10.70;9.17;;;;;;;;;;5032857;28;20230;-32
2023/05/02 11:57:14;;;;;;;9.77;8.77;;;;;;;;;;5043907;28;20218;-29
2023/05/02 11:59:51;;;;;;;11.43;9.70;;;;;;;;;;5038272;28;20312;-30
2023/05/02 12:02:18;;;;;;;12.50;9.70;;;;;;;;;;5029812;28;20285;-28
2023/05/02 12:04:45;;;;;;;11.67;8.83;;;;;;;;;;5035523;28;20241;-29
2023/05/02 12:07:14;;;;;;;11.80;9.33;;;;;;;;;;5049853;28;20208;-30
2023/05/02 12:09:54;;;;;;;11.87;9.17;;;;;;;;;;5049916;28;20660;-29
2023/05/02 12:12:21;;;;;;;10.37;8.00;;;;;;;;;;5037628;28;20222;-30
2023/05/02 12:17:52;;;;;;;9.83;8.37;;;;;;;;;;5257311;22;20539;-31
2023/05/02 12:20:19;;;;;;;8.63;7.73;;;;;;;;;;5029724;28;20213;-33
2023/05/02 12:22:48;;;;;;;8.90;7.13;;;;;;;;;;5041963;28;20198;-32
2023/05/02 12:25:15;;;;;;;8.30;7.40;;;;;;;;;;5072418;28;20311;-31
2023/05/02 12:27:42;;;;;;;9.07;7.47;;;;;;;;;;5060967;28;20205;-34
2023/05/02 12:30:09;;;;;;;10.53;7.93;;;;;;;;;;5065470;28;20216;-34
2023/05/02 12:32:41;;;;;;;10.77;8.17;;;;;;;;;;5055343;28;20221;-32
2023/05/02 12:35:21;;;;;;;11.07;8.67;;;;;;;;;;5061605;28;20228;-32
2023/05/02 12:37:50;;;;;;;8.67;7.53;;;;;;;;;;5066418;28;20213;-32
2023/05/02 12:40:22;;;;;;;9.70;8.57;;;;;;;;;;5071421;28;20205;-32
2023/05/02 12:43:00;;;;;;;12.00;9.07;;;;;;;;;;5072471;28;20205;-30
2023/05/02 12:45:32;;;;;;;12.40;9.83;;;;;;;;;;5062182;28;20285;-35
2023/05/02 12:47:59;;;;;;;11.53;9.10;;;;;;;;;;5058625;28;20206;-32
2023/05/02 12:50:36;;;;;;;11.60;9.20;;;;;;;;;;5060499;28;20234;-31
2023/05/02 12:53:06;;;;;;;9.13;7.00;;;;;;;;;;5068040;28;20205;-31
2023/05/02 12:55:33;;;;;;;10.27;8.10;;;;;;;;;;5073580;28;20296;-35
2023/05/02 12:58:01;;;;;;;8.30;7.50;;;;;;;;;;5061570;28;20559;-32
2023/05/02 13:00:28;;;;;;;8.83;7.17;;;;;;;;;;5062304;28;20208;-34
2023/05/02 13:02:56;;;;;;;10.07;7.93;;;;;;;;;;5068016;28;20206;-31
2023/05/02 13:05:23;;;;;;;10.17;7.60;;;;;;;;;;5060612;28;20210;-33
2023/05/02 13:07:50;;;;;;;7.47;6.67;;;;;;;;;;5074375;28;20257;-35
2023/05/02 13:10:19;;;;;;;11.67;8.77;;;;;;;;;;5071937;28;20208;-31
2023/05/02 13:12:47;;;;;;;10.73;8.10;;;;;;;;;;5060952;28;20226;-33
2023/05/02 13:15:14;;;;;;;12.67;10.30;;;;;;;;;;5060534;28;20431;-32
2023/05/02 13:17:41;;;;;;;11.30;9.83;;;;;;;;;;5056559;28;20201;-32
2023/05/02 13:20:09;;;;;;;12.10;9.50;;;;;;;;;;5063575;28;20214;-33
2023/05/02 13:22:37;;;;;;;12.33;9.50;;;;;;;;;;5063827;28;20197;-31
2023/05/02 13:25:04;;;;;;;12.50;9.27;;;;;;;;;;5074536;28;20229;-33
2023/05/02 13:27:33;;;;;;;11.70;8.60;;;;;;;;;;5067488;28;20260;-35
2023/05/02 13:30:00;;;;;;;9.53;8.30;;;;;;;;;;5063409;28;20209;-32
2023/05/02 13:32:28;;;;;;;10.47;8.20;;;;;;;;;;5060921;28;20420;-32
2023/05/02 13:34:55;;;;;;;8.57;7.47;;;;;;;;;;5068312;28;20235;-32
2023/05/02 13:37:22;;;;;;;7.60;6.47;;;;;;;;;;5058082;28;20205;-32
2023/05/02 13:39:49;;;;;;;8.93;7.37;;;;;;;;;;5053419;28;20268;-35
2023/05/02 13:42:16;;;;;;;8.17;7.03;;;;;;;;;;5052934;28;20205;-33
2023/05/02 13:44:45;;;;;;;8.07;6.63;;;;;;;;;;5061880;28;20225;-32
2023/05/02 13:47:12;;;;;;;7.00;6.07;;;;;;;;;;5060428;28;20218;-34
2023/05/02 13:49:39;;;;;;;8.00;6.90;;;;;;;;;;5062701;28;20209;-35
2023/05/02 13:52:06;;;;;;;10.00;8.60;;;;;;;;;;5060029;28;20198;-33
2023/05/02 13:54:33;;;;;;;10.13;7.43;;;;;;;;;;5054301;28;20709;-33
2023/05/02 13:57:01;;;;;;;9.03;7.53;;;;;;;;;;5058134;28;20206;-36
2023/05/02 13:59:28;;;;;;;8.53;7.17;;;;;;;;;;5071960;28;20205;-33
2023/05/02 14:01:57;;;;;;;5.53;5.03;;;;;;;;;;5063482;28;20205;-33
2023/05/02 14:04:24;;;;;;;5.90;5.27;;;;;;;;;;5052744;28;20222;-35
2023/05/02 14:06:51;;;;;;;6.80;5.70;;;;;;;;;;5071641;28;20283;-32
2023/05/02 14:09:19;;;;;;;9.83;5.63;;;;;;;;;;5073271;28;20235;-33
2023/05/02 14:11:47;;;;;;;8.00;5.50;;;;;;;;;;5067041;28;20233;-33
2023/05/02 14:14:14;;;;;;;6.17;4.93;;;;;;;;;;5060011;28;20268;-35
2023/05/02 14:17:01;;;;;;;8.30;5.67;;;;;;;;;;5063697;28;20213;-33
2023/05/02 14:19:28;;;;;;;9.37;7.03;;;;;;;;;;5050324;28;20299;-32
2023/05/02 14:21:55;;;;;;;8.03;6.77;;;;;;;;;;5046489;28;20210;-34
2023/05/02 14:24:22;;;;;;;7.47;6.43;;;;;;;;;;5053907;28;20229;-34
2023/05/02 14:26:49;;;;;;;9.27;7.27;;;;;;;;;;5052383;28;20206;-33
2023/05/02 14:29:16;;;;;;;9.87;7.67;;;;;;;;;;5048816;28;20206;-33
2023/05/02 14:31:44;;;;;;;12.03;9.13;;;;;;;;;;5052815;28;20216;-32
2023/05/02 14:34:13;;;;;;;11.13;8.97;;;;;;;;;;5045777;28;20672;-33
2023/05/02 14:36:40;;;;;;;10.77;7.77;;;;;;;;;;5052716;28;20678;-33
2023/05/02 14:39:07;;;;;;;10.60;8.73;;;;;;;;;;5053666;28;20205;-34
2023/05/02 14:41:35;;;;;;;10.07;7.90;;;;;;;;;;5041417;28;20230;-33
2023/05/02 14:44:02;;;;;;;10.83;8.47;;;;;;;;;;5050436;28;20234;-31
2023/05/02 14:46:29;;;;;;;12.83;10.00;;;;;;;;;;5051692;28;20244;-32
2023/05/02 14:48:57;;;;;;;10.30;7.43;;;;;;;;;;5047215;28;20206;-34
2023/05/02 14:51:26;;;;;;;10.47;8.07;;;;;;;;;;5052601;28;20621;-31
2023/05/02 14:53:54;;;;;;;10.73;9.30;;;;;;;;;;5052527;28;20695;-32
2023/05/02 14:56:22;;;;;;;9.97;8.80;;;;;;;;;;5036066;28;20604;-31
2023/05/02 14:58:49;;;;;;;10.73;8.57;;;;;;;;;;5040524;28;20880;-32
2023/05/02 15:01:17;;;;;;;11.47;9.27;;;;;;;;;;5050441;28;20210;-35
2023/05/02 15:03:46;;;;;;;14.73;8.73;;;;;;;;;;5047020;28;20222;-31
2023/05/02 15:06:13;;;;;;;11.77;7.40;;;;;;;;;;5052908;28;20206;-34
2023/05/02 15:08:42;;;;;;;10.20;6.73;;;;;;;;;;5052730;28;20210;-33
2023/05/02 15:11:10;;;;;;;10.97;8.77;;;;;;;;;;5053218;28;20205;-31
2023/05/02 15:13:37;;;;;;;8.03;6.70;;;;;;;;;;5038624;28;20234;-33
2023/05/02 15:16:04;;;;;;;9.47;7.80;;;;;;;;;;5045594;28;20210;-35
2023/05/02 15:18:31;;;;;;;10.70;7.00;;;;;;;;;;5053735;28;20667;-32
2023/05/02 15:20:58;;;;;;;8.30;6.53;;;;;;;;;;5062977;28;20295;-33
2023/05/02 15:23:26;;;;;;;7.60;6.27;;;;;;;;;;5064727;28;20218;-33
2023/05/02 15:25:54;;;;;;;8.33;5.97;;;;;;;;;;5060808;28;20213;-31
2023/05/02 15:28:31;;;;;;;8.80;5.93;;;;;;;;;;5064748;28;20201;-33
2023/05/02 15:30:58;;;;;;;6.47;5.47;;;;;;;;;;5060791;28;20204;-33
2023/05/02 15:33:25;;;;;;;8.70;6.77;;;;;;;;;;5062486;28;20225;-33
2023/05/02 15:35:53;;;;;;;7.47;6.03;;;;;;;;;;5060886;28;20271;-35
2023/05/02 15:38:20;;;;;;;8.27;6.17;;;;;;;;;;5060563;28;20259;-31
2023/05/02 15:40:55;;;;;;;7.27;6.03;;;;;;;;;;5056509;28;20202;-34
2023/05/02 15:43:22;;;;;;;6.67;5.47;;;;;;;;;;5072939;28;20220;-32
2023/05/02 15:45:52;;;;;;;7.23;6.20;;;;;;;;;;5066866;28;20210;-33
2023/05/02 15:48:20;;;;;;;10.23;6.20;;;;;;;;;;5049557;28;20439;-35
2023/05/02 15:50:47;;;;;;;10.67;6.30;;;;;;;;;;5060292;28;20291;-34